Time;durP1;ratioP1;P1;durP2;ratioP2;P2;SDS_P1;SDS_P2;PMS_P1;PMS_P2;Temp;Humidity;BMP_temperature;BMP_pressure;BME280_temperature;BME280_humidity;BME280_pressure;Samples;Min_cycle;Max_cycle;Signal;HPM_P1;HPM_P2
2024/01/24 00:01:54;;;;;;;14.65;4.55;;;;;;;;;;5015549;28;20037;-72
2024/01/24 00:04:22;;;;;;;15.38;3.67;;;;;;;;;;5013219;28;20048;-71
2024/01/24 00:06:48;;;;;;;15.88;4.72;;;;;;;;;;5015532;28;20103;-71
2024/01/24 00:09:14;;;;;;;23.33;4.57;;;;;;;;;;5013237;28;20100;-71
2024/01/24 00:11:40;;;;;;;12.77;3.83;;;;;;;;;;5012717;28;20042;-71
2024/01/24 00:14:06;;;;;;;17.98;3.75;;;;;;;;;;5014597;28;20050;-71
2024/01/24 00:16:32;;;;;;;22.42;4.70;;;;;;;;;;5018915;28;20060;-71
2024/01/24 00:18:58;;;;;;;20.88;3.75;;;;;;;;;;5022864;28;20049;-71
2024/01/24 00:21:24;;;;;;;14.27;4.43;;;;;;;;;;5017334;28;20107;-71
2024/01/24 00:23:50;;;;;;;15.63;4.15;;;;;;;;;;5014432;28;20115;-71
2024/01/24 00:26:16;;;;;;;17.10;4.65;;;;;;;;;;5017350;28;20487;-71
2024/01/24 00:28:42;;;;;;;17.30;4.13;;;;;;;;;;5013950;28;20045;-72
2024/01/24 00:31:08;;;;;;;14.93;4.18;;;;;;;;;;5019362;28;20064;-72
2024/01/24 00:33:34;;;;;;;12.27;4.13;;;;;;;;;;5019324;28;20050;-71
2024/01/24 00:36:00;;;;;;;21.85;5.22;;;;;;;;;;5017468;28;20141;-71
2024/01/24 00:38:26;;;;;;;19.75;4.85;;;;;;;;;;5018839;28;20128;-71
2024/01/24 00:40:52;;;;;;;14.05;4.53;;;;;;;;;;5021733;28;20601;-72
2024/01/24 00:43:18;;;;;;;20.38;4.38;;;;;;;;;;5013420;28;20076;-71
2024/01/24 00:45:44;;;;;;;21.13;4.38;;;;;;;;;;5020284;28;20050;-72
2024/01/24 00:48:10;;;;;;;11.57;3.60;;;;;;;;;;5021694;28;20044;-73
2024/01/24 00:50:36;;;;;;;9.45;3.25;;;;;;;;;;5018812;28;20077;-71
2024/01/24 00:53:06;;;;;;;22.13;4.50;;;;;;;;;;5020074;28;20213;-72
2024/01/24 00:55:32;;;;;;;15.15;4.45;;;;;;;;;;5018153;28;20057;-72
2024/01/24 00:57:58;;;;;;;14.02;4.57;;;;;;;;;;5016877;28;20049;-72
2024/01/24 01:00:25;;;;;;;19.15;4.10;;;;;;;;;;5013361;28;20069;-72
2024/01/24 01:02:51;;;;;;;19.02;4.45;;;;;;;;;;5013268;28;20049;-72
2024/01/24 01:05:17;;;;;;;11.45;3.30;;;;;;;;;;5013287;28;20037;-71
2024/01/24 01:07:43;;;;;;;11.55;3.80;;;;;;;;;;5015059;28;20076;-72
2024/01/24 01:10:09;;;;;;;16.05;4.47;;;;;;;;;;5014201;28;20053;-71
2024/01/24 01:12:35;;;;;;;11.50;3.50;;;;;;;;;;5013548;28;20131;-71
2024/01/24 01:15:02;;;;;;;14.93;3.80;;;;;;;;;;5016762;28;20083;-72
2024/01/24 01:17:28;;;;;;;13.32;3.72;;;;;;;;;;5020256;28;20080;-72
2024/01/24 01:19:54;;;;;;;12.27;3.05;;;;;;;;;;5013833;28;20103;-71
2024/01/24 01:22:20;;;;;;;10.60;3.40;;;;;;;;;;5015149;28;20045;-72
2024/01/24 01:24:46;;;;;;;15.57;3.50;;;;;;;;;;5018072;28;20519;-72
2024/01/24 01:27:12;;;;;;;15.63;3.78;;;;;;;;;;5014913;28;20060;-72
2024/01/24 01:29:38;;;;;;;11.00;3.38;;;;;;;;;;5014548;28;20708;-71
2024/01/24 01:32:05;;;;;;;12.90;3.88;;;;;;;;;;5021017;28;20102;-71
2024/01/24 01:34:31;;;;;;;17.90;3.55;;;;;;;;;;5020968;28;20060;-72
2024/01/24 01:36:57;;;;;;;14.80;4.07;;;;;;;;;;5018751;28;20132;-71
2024/01/24 01:39:24;;;;;;;17.27;4.78;;;;;;;;;;5021081;28;20116;-71
2024/01/24 01:41:50;;;;;;;19.63;4.88;;;;;;;;;;5019466;28;20748;-72
2024/01/24 01:44:16;;;;;;;15.32;4.05;;;;;;;;;;5017872;28;20128;-72
2024/01/24 01:46:43;;;;;;;11.70;3.22;;;;;;;;;;5016897;28;20561;-72
2024/01/24 01:49:09;;;;;;;12.75;3.60;;;;;;;;;;5017327;28;20051;-71
2024/01/24 01:51:36;;;;;;;11.27;2.72;;;;;;;;;;5018613;28;20134;-71
2024/01/24 01:54:02;;;;;;;11.70;2.78;;;;;;;;;;5016771;28;20129;-71
2024/01/24 01:56:28;;;;;;;10.18;2.78;;;;;;;;;;5015075;28;20473;-71
2024/01/24 01:58:55;;;;;;;10.00;2.95;;;;;;;;;;5013879;28;20073;-71
2024/01/24 02:01:21;;;;;;;10.60;3.15;;;;;;;;;;5015150;28;20052;-72
2024/01/24 02:03:47;;;;;;;7.95;2.63;;;;;;;;;;5010822;28;20046;-71
2024/01/24 02:06:13;;;;;;;6.65;2.08;;;;;;;;;;5016611;28;20096;-72
2024/01/24 02:08:39;;;;;;;9.95;2.25;;;;;;;;;;5011536;28;20121;-71
2024/01/24 02:11:06;;;;;;;8.35;2.42;;;;;;;;;;5016805;28;20053;-72
2024/01/24 02:13:32;;;;;;;11.95;2.90;;;;;;;;;;5012323;28;20046;-72
2024/01/24 02:16:03;;;;;;;9.90;3.10;;;;;;;;;;5012344;28;20041;-72
2024/01/24 02:18:29;;;;;;;7.07;1.98;;;;;;;;;;5016635;28;20049;-71
2024/01/24 02:20:55;;;;;;;13.30;3.00;;;;;;;;;;5015799;28;20635;-72
2024/01/24 02:23:25;;;;;;;10.93;2.92;;;;;;;;;;5017688;28;20117;-71
2024/01/24 02:25:52;;;;;;;12.95;3.25;;;;;;;;;;5017624;28;20557;-72
2024/01/24 02:28:18;;;;;;;12.30;2.88;;;;;;;;;;5016935;28;20467;-72
2024/01/24 02:30:44;;;;;;;7.97;2.35;;;;;;;;;;5019161;28;20038;-71
2024/01/24 02:33:11;;;;;;;10.20;2.92;;;;;;;;;;5020853;28;20519;-73
2024/01/24 02:35:37;;;;;;;10.80;3.33;;;;;;;;;;5019497;28;20046;-72
2024/01/24 02:38:03;;;;;;;10.85;2.90;;;;;;;;;;5019402;28;20551;-71
2024/01/24 02:40:29;;;;;;;11.48;3.35;;;;;;;;;;5017746;28;20073;-71
2024/01/24 02:42:55;;;;;;;7.50;2.58;;;;;;;;;;5018433;28;20049;-72
2024/01/24 02:45:21;;;;;;;14.07;2.60;;;;;;;;;;5016384;28;20053;-71
2024/01/24 02:47:47;;;;;;;8.13;2.42;;;;;;;;;;5017523;28;20570;-71
2024/01/24 02:50:13;;;;;;;7.90;3.03;;;;;;;;;;5016888;28;20052;-72
2024/01/24 02:52:39;;;;;;;11.60;3.17;;;;;;;;;;5019772;28;20045;-71
2024/01/24 02:55:07;;;;;;;11.90;2.80;;;;;;;;;;5018231;28;20044;-72
2024/01/24 02:57:33;;;;;;;11.75;2.72;;;;;;;;;;5015413;28;20045;-72
2024/01/24 02:59:59;;;;;;;12.07;3.45;;;;;;;;;;5018125;28;20045;-72
2024/01/24 03:02:25;;;;;;;13.90;3.85;;;;;;;;;;5018536;28;20049;-71
2024/01/24 03:04:51;;;;;;;10.52;3.45;;;;;;;;;;5018718;28;20114;-72
2024/01/24 03:07:17;;;;;;;10.90;2.85;;;;;;;;;;5018637;28;20056;-72
2024/01/24 03:09:43;;;;;;;14.95;4.00;;;;;;;;;;5017642;28;20049;-72
2024/01/24 03:12:09;;;;;;;12.07;3.00;;;;;;;;;;5016339;28;20522;-71
2024/01/24 03:14:35;;;;;;;14.77;3.58;;;;;;;;;;5019781;28;20734;-72
2024/01/24 03:17:01;;;;;;;20.80;4.38;;;;;;;;;;5020649;28;20439;-71
2024/01/24 03:19:27;;;;;;;11.35;3.90;;;;;;;;;;5018640;28;20099;-72
2024/01/24 03:21:53;;;;;;;17.00;3.80;;;;;;;;;;5014360;28;20057;-72
2024/01/24 03:24:19;;;;;;;13.82;3.65;;;;;;;;;;5018799;28;20103;-72
2024/01/24 03:26:45;;;;;;;12.70;3.53;;;;;;;;;;5019929;28;20129;-72
2024/01/24 03:29:11;;;;;;;14.35;3.50;;;;;;;;;;5020703;28;20049;-72
2024/01/24 03:31:37;;;;;;;13.43;3.30;;;;;;;;;;5020291;28;20048;-71
2024/01/24 03:34:03;;;;;;;17.00;4.53;;;;;;;;;;5023669;28;20369;-71
2024/01/24 03:36:29;;;;;;;21.95;4.45;;;;;;;;;;5019179;28;20125;-71
2024/01/24 03:38:55;;;;;;;18.92;4.38;;;;;;;;;;5021444;28;20060;-72
2024/01/24 03:41:21;;;;;;;16.80;3.70;;;;;;;;;;5018061;28;20056;-72
2024/01/24 03:43:48;;;;;;;16.65;3.95;;;;;;;;;;5019549;28;20575;-72
2024/01/24 03:46:14;;;;;;;15.32;4.32;;;;;;;;;;5018645;28;20045;-72
2024/01/24 03:48:40;;;;;;;19.25;4.82;;;;;;;;;;5022332;28;20052;-72
2024/01/24 03:51:08;;;;;;;18.95;4.18;;;;;;;;;;5022309;28;20495;-72
2024/01/24 03:53:34;;;;;;;11.70;3.33;;;;;;;;;;5018973;28;20056;-72
2024/01/24 03:56:00;;;;;;;12.95;3.88;;;;;;;;;;5020541;28;20033;-73
2024/01/24 03:58:27;;;;;;;19.48;4.63;;;;;;;;;;5021749;28;20050;-72
2024/01/24 04:00:55;;;;;;;19.05;4.38;;;;;;;;;;5038510;28;20056;-72
2024/01/24 04:03:21;;;;;;;19.10;4.95;;;;;;;;;;5020683;28;20133;-72
2024/01/24 04:05:47;;;;;;;15.88;5.30;;;;;;;;;;5020367;28;20188;-72
2024/01/24 04:08:13;;;;;;;17.85;4.50;;;;;;;;;;5023885;28;20049;-72
2024/01/24 04:10:39;;;;;;;20.48;5.65;;;;;;;;;;5020786;28;20137;-72
2024/01/24 04:13:05;;;;;;;14.43;3.90;;;;;;;;;;5016614;28;20081;-72
2024/01/24 04:15:31;;;;;;;16.20;4.20;;;;;;;;;;5017109;28;20384;-72
2024/01/24 04:17:59;;;;;;;16.10;4.75;;;;;;;;;;5017653;28;20056;-72
2024/01/24 04:20:25;;;;;;;19.20;5.68;;;;;;;;;;5017055;28;20098;-72
2024/01/24 04:22:51;;;;;;;23.92;5.05;;;;;;;;;;5013603;28;20120;-72
2024/01/24 04:25:17;;;;;;;15.70;4.38;;;;;;;;;;5020419;28;20060;-73
2024/01/24 04:27:43;;;;;;;16.52;4.55;;;;;;;;;;5021483;28;20049;-73
2024/01/24 04:30:09;;;;;;;19.33;4.25;;;;;;;;;;5017871;28;20053;-72
2024/01/24 04:32:35;;;;;;;18.58;5.10;;;;;;;;;;5016318;28;20050;-73
2024/01/24 04:35:01;;;;;;;14.65;4.43;;;;;;;;;;5015679;28;20040;-72
2024/01/24 04:37:27;;;;;;;26.25;5.22;;;;;;;;;;5015046;28;20646;-72
2024/01/24 04:39:53;;;;;;;25.73;6.30;;;;;;;;;;5018805;28;20277;-72
2024/01/24 04:42:19;;;;;;;22.27;5.93;;;;;;;;;;5020092;28;20051;-72
2024/01/24 04:44:45;;;;;;;24.38;6.50;;;;;;;;;;5015548;28;20504;-72
2024/01/24 04:47:14;;;;;;;24.65;5.57;;;;;;;;;;5015824;28;20053;-72
2024/01/24 04:49:40;;;;;;;28.20;6.88;;;;;;;;;;5020408;28;20476;-72
2024/01/24 04:52:07;;;;;;;27.27;6.13;;;;;;;;;;5019767;28;20053;-73
2024/01/24 04:54:34;;;;;;;22.45;5.95;;;;;;;;;;5017048;28;20053;-72
2024/01/24 04:57:01;;;;;;;26.33;6.15;;;;;;;;;;5018706;28;20120;-73
2024/01/24 04:59:28;;;;;;;20.98;5.18;;;;;;;;;;5022796;28;20163;-72
2024/01/24 05:01:54;;;;;;;31.08;6.80;;;;;;;;;;5022007;28;20510;-72
2024/01/24 05:04:20;;;;;;;29.67;6.45;;;;;;;;;;5019825;28;20064;-73
2024/01/24 05:06:46;;;;;;;26.02;6.22;;;;;;;;;;5020472;28;20057;-72
2024/01/24 05:09:14;;;;;;;28.20;6.93;;;;;;;;;;5017730;28;20037;-72
2024/01/24 05:11:40;;;;;;;25.27;6.82;;;;;;;;;;5020103;28;20049;-72
2024/01/24 05:14:06;;;;;;;23.77;5.85;;;;;;;;;;5018252;28;20087;-72
2024/01/24 05:16:32;;;;;;;26.80;6.78;;;;;;;;;;5016553;28;20611;-72
2024/01/24 05:18:58;;;;;;;27.52;6.88;;;;;;;;;;5017782;28;20084;-72
2024/01/24 05:21:25;;;;;;;26.45;7.15;;;;;;;;;;5019070;28;20520;-72
2024/01/24 05:23:52;;;;;;;31.23;8.40;;;;;;;;;;5018896;28;20097;-73
2024/01/24 05:26:18;;;;;;;22.58;6.78;;;;;;;;;;5017101;28;20053;-72
2024/01/24 05:28:44;;;;;;;37.42;7.45;;;;;;;;;;5012886;28;20060;-73
2024/01/24 05:31:10;;;;;;;33.13;6.72;;;;;;;;;;5019090;28;20065;-72
2024/01/24 05:33:36;;;;;;;33.90;7.22;;;;;;;;;;5011049;28;20200;-72
2024/01/24 05:36:02;;;;;;;30.67;7.88;;;;;;;;;;5021032;28;20114;-73
2024/01/24 05:38:29;;;;;;;38.85;9.10;;;;;;;;;;5018798;28;20045;-72
2024/01/24 05:40:55;;;;;;;37.83;8.40;;;;;;;;;;5014594;28;20057;-73
2024/01/24 05:43:21;;;;;;;22.67;6.63;;;;;;;;;;5018078;28;20053;-72
2024/01/24 05:45:51;;;;;;;34.13;7.93;;;;;;;;;;5010774;28;20049;-72
2024/01/24 05:48:17;;;;;;;32.33;8.10;;;;;;;;;;5031250;28;20050;-73
2024/01/24 05:50:43;;;;;;;32.88;7.80;;;;;;;;;;5014963;28;20080;-72
2024/01/24 05:53:09;;;;;;;28.15;7.20;;;;;;;;;;5018016;28;20091;-73
2024/01/24 05:55:38;;;;;;;27.77;6.53;;;;;;;;;;5019140;28;20136;-72
2024/01/24 05:58:05;;;;;;;26.48;7.40;;;;;;;;;;5017865;28;20069;-72
2024/01/24 06:00:32;;;;;;;29.08;7.82;;;;;;;;;;5018391;28;20057;-72
2024/01/24 06:02:58;;;;;;;28.20;7.50;;;;;;;;;;5019992;28;20065;-73
2024/01/24 06:05:24;;;;;;;31.05;7.50;;;;;;;;;;5017762;28;20084;-73
2024/01/24 06:07:50;;;;;;;27.55;6.65;;;;;;;;;;5016001;28;20077;-73
2024/01/24 06:10:16;;;;;;;31.17;6.72;;;;;;;;;;5018321;28;20045;-73
2024/01/24 06:12:42;;;;;;;26.23;5.85;;;;;;;;;;5017283;28;20763;-73
2024/01/24 06:15:09;;;;;;;28.55;7.22;;;;;;;;;;5020331;28;20474;-72
2024/01/24 06:17:35;;;;;;;20.85;6.47;;;;;;;;;;5019579;28;20112;-72
2024/01/24 06:20:01;;;;;;;31.65;7.53;;;;;;;;;;5018105;28;20045;-73
2024/01/24 06:22:27;;;;;;;38.33;7.38;;;;;;;;;;5013909;28;20053;-73
2024/01/24 06:24:56;;;;;;;25.67;6.05;;;;;;;;;;5015153;28;20665;-72
2024/01/24 06:27:22;;;;;;;29.17;8.23;;;;;;;;;;5013524;28;20103;-73
2024/01/24 06:29:48;;;;;;;28.50;8.15;;;;;;;;;;5013647;28;20725;-73
2024/01/24 06:32:14;;;;;;;29.42;7.13;;;;;;;;;;5013700;28;20045;-72
2024/01/24 06:34:40;;;;;;;32.75;8.65;;;;;;;;;;5015686;28;20068;-72
2024/01/24 06:37:07;;;;;;;29.45;6.90;;;;;;;;;;5018099;28;20583;-73
2024/01/24 06:39:33;;;;;;;31.75;7.50;;;;;;;;;;5019377;28;20068;-72
2024/01/24 06:41:59;;;;;;;42.38;8.27;;;;;;;;;;5014221;28;20054;-72
2024/01/24 06:44:26;;;;;;;33.92;8.10;;;;;;;;;;5018011;28;20133;-72
2024/01/24 06:46:52;;;;;;;31.88;8.10;;;;;;;;;;5025532;28;20392;-73
2024/01/24 06:49:19;;;;;;;27.80;7.63;;;;;;;;;;5020244;28;20041;-73
2024/01/24 06:51:45;;;;;;;33.17;8.57;;;;;;;;;;5024277;28;20050;-73
2024/01/24 06:54:13;;;;;;;32.53;8.18;;;;;;;;;;5024296;28;20369;-72
2024/01/24 06:56:39;;;;;;;23.73;6.65;;;;;;;;;;5019200;28;20061;-72
2024/01/24 06:59:05;;;;;;;27.73;7.55;;;;;;;;;;5024028;28;20049;-73
2024/01/24 07:01:31;;;;;;;23.95;7.10;;;;;;;;;;5023039;28;20123;-73
2024/01/24 07:03:57;;;;;;;25.88;6.07;;;;;;;;;;5023330;28;20042;-72
2024/01/24 07:06:23;;;;;;;30.52;7.25;;;;;;;;;;5023536;28;20124;-73
2024/01/24 07:08:49;;;;;;;33.15;8.25;;;;;;;;;;5023492;28;20125;-73
2024/01/24 07:11:15;;;;;;;22.52;6.20;;;;;;;;;;5021893;28;20412;-72
2024/01/24 07:13:41;;;;;;;22.75;5.95;;;;;;;;;;5024673;28;20064;-72
2024/01/24 07:16:07;;;;;;;23.15;6.65;;;;;;;;;;5024807;28;20168;-73
2024/01/24 07:18:33;;;;;;;26.38;6.93;;;;;;;;;;5020659;28;20188;-72
2024/01/24 07:21:00;;;;;;;28.02;8.52;;;;;;;;;;5019000;28;20148;-72
2024/01/24 07:23:26;;;;;;;18.80;5.85;;;;;;;;;;5023087;28;20050;-72
2024/01/24 07:25:52;;;;;;;30.85;7.65;;;;;;;;;;5022412;28;20523;-73
2024/01/24 07:28:18;;;;;;;33.25;6.60;;;;;;;;;;5022359;28;20045;-72
2024/01/24 07:30:45;;;;;;;28.70;7.55;;;;;;;;;;5021121;28;20057;-73
2024/01/24 07:33:11;;;;;;;32.08;7.15;;;;;;;;;;5017971;28;20049;-72
2024/01/24 07:35:37;;;;;;;20.70;6.28;;;;;;;;;;5022699;28;20067;-73
2024/01/24 07:38:03;;;;;;;32.58;7.32;;;;;;;;;;5016854;28;20050;-72
2024/01/24 07:40:29;;;;;;;33.97;6.82;;;;;;;;;;5013149;28;20041;-72
2024/01/24 07:42:55;;;;;;;31.52;6.60;;;;;;;;;;5016510;28;20041;-72
2024/01/24 07:45:22;;;;;;;31.98;8.02;;;;;;;;;;5014983;28;20120;-73
2024/01/24 07:47:50;;;;;;;27.67;6.63;;;;;;;;;;5019049;28;20069;-72
2024/01/24 07:50:16;;;;;;;29.30;6.68;;;;;;;;;;5023515;28;20048;-72
2024/01/24 07:52:43;;;;;;;40.55;8.65;;;;;;;;;;5023771;28;20136;-73
2024/01/24 07:55:10;;;;;;;30.63;6.63;;;;;;;;;;5022535;28;20041;-71
2024/01/24 07:57:36;;;;;;;34.55;8.82;;;;;;;;;;5022859;28;20633;-72
2024/01/24 08:00:04;;;;;;;32.45;7.32;;;;;;;;;;5015655;28;20047;-73
2024/01/24 08:02:30;;;;;;;22.65;7.07;;;;;;;;;;5023008;28;20156;-72
2024/01/24 08:04:57;;;;;;;30.23;7.40;;;;;;;;;;5018281;28;20140;-72
2024/01/24 08:07:23;;;;;;;27.38;7.70;;;;;;;;;;5024845;28;20124;-72
2024/01/24 08:09:49;;;;;;;30.83;7.60;;;;;;;;;;5019333;28;20045;-72
2024/01/24 08:12:15;;;;;;;26.83;7.10;;;;;;;;;;5021228;28;20060;-72
2024/01/24 08:14:42;;;;;;;26.48;7.72;;;;;;;;;;5015194;28;20144;-72
2024/01/24 08:17:10;;;;;;;25.00;7.28;;;;;;;;;;5024327;28;20046;-73
2024/01/24 08:19:36;;;;;;;28.23;7.00;;;;;;;;;;5017539;28;20060;-73
2024/01/24 08:22:03;;;;;;;29.15;6.25;;;;;;;;;;5023338;28;20718;-73
2024/01/24 08:24:29;;;;;;;26.75;7.20;;;;;;;;;;5013260;28;20139;-75
2024/01/24 08:26:56;;;;;;;32.20;8.02;;;;;;;;;;4987636;28;20542;-69
2024/01/24 08:29:25;;;;;;;38.95;8.63;;;;;;;;;;5005527;28;20100;-65
2024/01/24 08:31:51;;;;;;;23.27;5.93;;;;;;;;;;5002694;28;20492;-67
2024/01/24 08:34:17;;;;;;;19.95;6.43;;;;;;;;;;5000855;28;20034;-65
2024/01/24 08:36:44;;;;;;;22.27;6.70;;;;;;;;;;5001446;28;20056;-79
2024/01/24 08:39:10;;;;;;;28.08;6.20;;;;;;;;;;4990340;28;20068;-79
2024/01/24 08:41:36;;;;;;;27.60;7.13;;;;;;;;;;4984014;28;20073;-76
2024/01/24 08:44:04;;;;;;;35.75;7.35;;;;;;;;;;5006822;28;20041;-74
2024/01/24 08:46:30;;;;;;;33.95;7.55;;;;;;;;;;5006769;28;20129;-73
2024/01/24 08:48:56;;;;;;;22.10;6.00;;;;;;;;;;4993751;28;20048;-71
2024/01/24 08:51:25;;;;;;;30.48;6.93;;;;;;;;;;5006712;28;20050;-73
2024/01/24 08:53:51;;;;;;;24.13;5.68;;;;;;;;;;4991008;28;20052;-74
2024/01/24 08:56:18;;;;;;;25.70;7.00;;;;;;;;;;5006080;28;20179;-78
2024/01/24 08:58:44;;;;;;;34.20;7.28;;;;;;;;;;4988444;28;20053;-79
2024/01/24 09:01:10;;;;;;;26.23;6.50;;;;;;;;;;4988544;28;20061;-75
2024/01/24 09:03:36;;;;;;;20.38;6.32;;;;;;;;;;4985277;28;20050;-76
2024/01/24 09:06:02;;;;;;;23.25;6.25;;;;;;;;;;5000018;28;20060;-75
2024/01/24 09:08:28;;;;;;;32.40;9.07;;;;;;;;;;4988633;28;20049;-75
2024/01/24 09:10:54;;;;;;;31.02;6.65;;;;;;;;;;4988471;28;20074;-74
2024/01/24 09:13:22;;;;;;;24.90;6.30;;;;;;;;;;4988895;28;20042;-74
2024/01/24 09:15:48;;;;;;;23.98;7.43;;;;;;;;;;4988638;28;20521;-75
2024/01/24 09:18:17;;;;;;;32.10;8.13;;;;;;;;;;4988599;28;20042;-75
2024/01/24 09:20:43;;;;;;;22.20;6.80;;;;;;;;;;4987500;28;20057;-74
2024/01/24 09:23:10;;;;;;;22.13;6.93;;;;;;;;;;5006366;28;20112;-75
2024/01/24 09:25:36;;;;;;;27.13;7.13;;;;;;;;;;5024732;28;20057;-76
2024/01/24 09:28:02;;;;;;;32.42;8.13;;;;;;;;;;5024653;28;20058;-77
2024/01/24 09:30:28;;;;;;;22.13;6.75;;;;;;;;;;5024340;28;20098;-80
2024/01/24 09:32:54;;;;;;;29.70;7.65;;;;;;;;;;5024230;28;20045;-78
2024/01/24 09:35:20;;;;;;;26.70;6.97;;;;;;;;;;5024753;28;20060;-75
2024/01/24 09:37:46;;;;;;;33.92;6.53;;;;;;;;;;5024407;28;20049;-75
2024/01/24 09:40:15;;;;;;;25.63;6.82;;;;;;;;;;5014931;28;20052;-73
2024/01/24 09:42:42;;;;;;;31.60;8.38;;;;;;;;;;5021334;28;20050;-75
2024/01/24 09:45:09;;;;;;;24.65;6.80;;;;;;;;;;5018021;28;20053;-75
2024/01/24 09:47:36;;;;;;;17.65;5.65;;;;;;;;;;5017923;28;20056;-75
2024/01/24 09:50:04;;;;;;;28.73;7.13;;;;;;;;;;5020401;28;20400;-72
2024/01/24 09:52:32;;;;;;;28.20;7.60;;;;;;;;;;5017741;28;20076;-73
2024/01/24 09:54:59;;;;;;;23.00;6.32;;;;;;;;;;5021802;28;20046;-72
2024/01/24 09:57:26;;;;;;;25.58;6.60;;;;;;;;;;5017415;28;20396;-73
2024/01/24 09:59:53;;;;;;;21.17;6.13;;;;;;;;;;5023298;28;20061;-72
2024/01/24 10:02:19;;;;;;;30.50;7.57;;;;;;;;;;5015489;28;20090;-72
2024/01/24 10:04:45;;;;;;;24.92;6.20;;;;;;;;;;5017267;28;20045;-75
2024/01/24 10:07:11;;;;;;;26.70;6.70;;;;;;;;;;5010753;28;20504;-76
2024/01/24 10:09:37;;;;;;;31.42;6.78;;;;;;;;;;5016551;28;20049;-77
2024/01/24 10:12:04;;;;;;;28.48;6.90;;;;;;;;;;5021817;28;20068;-71
2024/01/24 10:14:30;;;;;;;30.92;7.40;;;;;;;;;;5016578;28;20045;-76
2024/01/24 10:16:58;;;;;;;21.70;6.90;;;;;;;;;;5023539;28;20046;-76
2024/01/24 10:19:24;;;;;;;31.63;7.35;;;;;;;;;;5017439;28;20448;-76
2024/01/24 10:21:51;;;;;;;30.23;7.57;;;;;;;;;;5020252;28;20053;-72
2024/01/24 10:24:17;;;;;;;25.10;7.65;;;;;;;;;;5016860;28;20095;-77
2024/01/24 10:26:46;;;;;;;16.92;5.78;;;;;;;;;;5021161;28;20053;-83
2024/01/24 10:29:12;;;;;;;28.25;6.80;;;;;;;;;;5015915;28;20540;-82
2024/01/24 10:31:38;;;;;;;27.52;7.40;;;;;;;;;;5018264;28;20524;-75
2024/01/24 10:34:04;;;;;;;22.02;6.72;;;;;;;;;;5022849;28;20046;-72
2024/01/24 10:36:32;;;;;;;23.10;7.28;;;;;;;;;;5024177;28;20128;-76
2024/01/24 10:38:59;;;;;;;25.67;5.25;;;;;;;;;;5025040;28;20052;-74
2024/01/24 10:41:28;;;;;;;23.30;5.93;;;;;;;;;;5013541;28;20060;-75
2024/01/24 10:43:57;;;;;;;25.83;6.50;;;;;;;;;;5018091;28;20038;-75
2024/01/24 10:46:23;;;;;;;29.60;6.47;;;;;;;;;;5017492;28;20051;-76
2024/01/24 10:48:49;;;;;;;29.67;7.72;;;;;;;;;;5015031;28;20041;-75
2024/01/24 10:51:15;;;;;;;23.63;6.22;;;;;;;;;;5012284;28;20453;-65
2024/01/24 10:53:42;;;;;;;16.85;6.07;;;;;;;;;;5015200;28;20037;-77
2024/01/24 10:56:08;;;;;;;25.33;6.05;;;;;;;;;;5015039;28;20112;-77
2024/01/24 10:58:35;;;;;;;27.63;7.82;;;;;;;;;;5015403;28;20137;-76
2024/01/24 11:01:01;;;;;;;22.02;5.75;;;;;;;;;;5016847;28;20045;-75
2024/01/24 11:03:27;;;;;;;20.13;6.03;;;;;;;;;;5023006;28;20048;-76
2024/01/24 11:05:55;;;;;;;20.73;5.93;;;;;;;;;;5021637;28;20049;-75
2024/01/24 11:08:24;;;;;;;21.33;6.15;;;;;;;;;;5018590;28;20050;-76
2024/01/24 11:10:53;;;;;;;23.25;7.18;;;;;;;;;;5019907;28;20050;-79
2024/01/24 11:13:19;;;;;;;20.77;6.10;;;;;;;;;;5020216;28;20046;-77
2024/01/24 11:15:46;;;;;;;22.88;6.28;;;;;;;;;;5012532;28;20145;-76
2024/01/24 11:18:31;;;;;;;21.10;6.65;;;;;;;;;;5014228;28;20517;-77
2024/01/24 11:20:58;;;;;;;21.45;6.43;;;;;;;;;;5017131;28;20474;-81
2024/01/24 11:23:46;;;;;;;17.25;5.15;;;;;;;;;;5021547;28;20488;-78
2024/01/24 11:26:32;;;;;;;27.40;6.25;;;;;;;;;;5027133;28;20089;-77
2024/01/24 11:29:05;;;;;;;18.75;5.60;;;;;;;;;;5001995;28;20058;-80
2024/01/24 11:31:38;;;;;;;19.58;5.40;;;;;;;;;;5022466;28;20050;-77
2024/01/24 11:34:09;;;;;;;28.50;6.18;;;;;;;;;;5014817;28;20112;-78
2024/01/24 11:36:41;;;;;;;22.48;6.43;;;;;;;;;;5018360;28;20115;-78
2024/01/24 11:39:26;;;;;;;19.90;6.10;;;;;;;;;;5016545;28;20060;-78
2024/01/24 11:41:52;;;;;;;29.33;7.50;;;;;;;;;;5017954;28;20492;-77
2024/01/24 11:44:20;;;;;;;22.10;5.60;;;;;;;;;;5017729;28;20053;-79
2024/01/24 11:46:46;;;;;;;18.58;5.70;;;;;;;;;;5017244;28;20045;-79
2024/01/24 11:49:12;;;;;;;23.27;5.72;;;;;;;;;;5018535;28;20427;-81
2024/01/24 11:51:38;;;;;;;23.60;5.45;;;;;;;;;;5016226;28;20049;-78
2024/01/24 11:54:04;;;;;;;26.42;5.95;;;;;;;;;;5014899;28;20054;-77
2024/01/24 11:56:34;;;;;;;25.48;5.72;;;;;;;;;;5016563;28;20100;-79
2024/01/24 11:59:00;;;;;;;18.27;5.38;;;;;;;;;;5019384;28;20120;-77
2024/01/24 12:01:26;;;;;;;31.60;6.03;;;;;;;;;;5017873;28;20140;-77
2024/01/24 12:03:52;;;;;;;17.90;5.25;;;;;;;;;;5016491;28;20049;-78
2024/01/24 12:06:19;;;;;;;22.35;6.47;;;;;;;;;;5014164;28;20054;-78
2024/01/24 12:08:45;;;;;;;21.35;5.28;;;;;;;;;;5015242;28;20052;-79
2024/01/24 12:11:11;;;;;;;16.25;5.47;;;;;;;;;;5019691;28;20073;-78
2024/01/24 12:13:37;;;;;;;18.73;5.45;;;;;;;;;;5018697;28;20049;-78
2024/01/24 12:16:04;;;;;;;21.98;5.38;;;;;;;;;;5017551;28;20443;-79
2024/01/24 12:18:31;;;;;;;19.90;5.88;;;;;;;;;;5014594;28;20515;-78
2024/01/24 12:20:57;;;;;;;20.50;5.80;;;;;;;;;;5015390;28;20053;-78
2024/01/24 12:23:23;;;;;;;19.17;5.57;;;;;;;;;;5018984;28;20053;-79
2024/01/24 12:25:49;;;;;;;23.33;6.75;;;;;;;;;;5018973;28;20112;-79
2024/01/24 12:28:15;;;;;;;24.20;5.43;;;;;;;;;;5017747;28;20045;-78
2024/01/24 12:30:45;;;;;;;24.60;6.07;;;;;;;;;;5015688;28;20046;-77
2024/01/24 12:33:11;;;;;;;21.63;6.72;;;;;;;;;;5014305;28;20126;-79
2024/01/24 12:35:37;;;;;;;18.70;5.68;;;;;;;;;;5018137;28;20069;-79
2024/01/24 12:38:04;;;;;;;28.15;6.40;;;;;;;;;;5018626;28;20080;-79
2024/01/24 12:40:31;;;;;;;19.73;6.38;;;;;;;;;;5016722;28;20459;-79
2024/01/24 12:42:58;;;;;;;23.60;6.30;;;;;;;;;;5015199;28;20405;-78
2024/01/24 12:45:24;;;;;;;19.38;5.95;;;;;;;;;;5016113;28;20053;-79
2024/01/24 12:47:51;;;;;;;24.45;5.85;;;;;;;;;;5018167;28;20124;-79
2024/01/24 12:50:17;;;;;;;23.20;6.47;;;;;;;;;;5017719;28;20077;-76
2024/01/24 12:52:43;;;;;;;28.17;6.38;;;;;;;;;;5016632;28;20053;-77
2024/01/24 12:55:09;;;;;;;20.13;5.95;;;;;;;;;;5013476;28;20104;-79
2024/01/24 12:57:35;;;;;;;23.48;6.78;;;;;;;;;;5015281;28;20132;-79
2024/01/24 13:00:09;;;;;;;22.45;6.85;;;;;;;;;;5017211;28;20435;-78
2024/01/24 13:02:35;;;;;;;18.00;5.22;;;;;;;;;;5016336;28;20157;-77
2024/01/24 13:05:01;;;;;;;20.35;6.10;;;;;;;;;;5013795;28;20049;-79
2024/01/24 13:07:28;;;;;;;24.02;6.70;;;;;;;;;;5015261;28;20749;-78
2024/01/24 13:09:54;;;;;;;25.13;6.10;;;;;;;;;;5014390;28;20128;-77
2024/01/24 13:12:20;;;;;;;15.32;5.53;;;;;;;;;;5017073;28;20484;-79
2024/01/24 13:14:46;;;;;;;27.05;7.07;;;;;;;;;;5018706;28;20042;-78
2024/01/24 13:17:12;;;;;;;17.77;5.07;;;;;;;;;;5013918;28;20049;-78
2024/01/24 13:19:38;;;;;;;27.80;6.97;;;;;;;;;;5014990;28;20057;-78
2024/01/24 13:22:04;;;;;;;22.10;6.63;;;;;;;;;;5015897;28;20050;-79
2024/01/24 13:24:30;;;;;;;26.65;6.70;;;;;;;;;;5015607;28;20556;-79
2024/01/24 13:27:00;;;;;;;27.02;6.03;;;;;;;;;;5016628;28;20081;-77
2024/01/24 13:29:26;;;;;;;16.70;5.97;;;;;;;;;;5013184;28;20073;-79
2024/01/24 13:31:52;;;;;;;22.17;6.50;;;;;;;;;;5012635;28;20077;-80
2024/01/24 13:34:18;;;;;;;19.60;5.30;;;;;;;;;;5014334;28;20080;-77
2024/01/24 13:36:44;;;;;;;29.83;8.23;;;;;;;;;;5018017;28;20037;-79
2024/01/24 13:39:14;;;;;;;20.33;5.32;;;;;;;;;;5017074;28;20056;-76
2024/01/24 13:41:41;;;;;;;23.80;6.72;;;;;;;;;;5017596;28;20041;-79
2024/01/24 13:44:07;;;;;;;23.00;6.90;;;;;;;;;;5016669;28;20392;-78
2024/01/24 13:46:33;;;;;;;15.82;5.18;;;;;;;;;;5014192;28;20504;-77
2024/01/24 13:49:00;;;;;;;20.10;6.13;;;;;;;;;;5013371;28;20442;-78
2024/01/24 13:51:26;;;;;;;19.55;6.28;;;;;;;;;;5012337;28;20049;-78
2024/01/24 13:53:52;;;;;;;21.17;6.78;;;;;;;;;;5021452;28;20046;-77
2024/01/24 13:56:18;;;;;;;20.65;6.13;;;;;;;;;;5014241;28;20060;-78
2024/01/24 13:58:44;;;;;;;19.77;5.18;;;;;;;;;;5014098;28;20128;-78
2024/01/24 14:01:10;;;;;;;29.73;6.20;;;;;;;;;;5021227;28;20475;-76
2024/01/24 14:03:36;;;;;;;24.02;5.95;;;;;;;;;;5025600;28;20042;-78
2024/01/24 14:06:02;;;;;;;22.10;5.88;;;;;;;;;;5017068;28;20045;-78
2024/01/24 14:08:31;;;;;;;19.33;6.38;;;;;;;;;;5023866;28;20041;-76
2024/01/24 14:10:56;;;;;;;14.35;4.88;;;;;;;;;;5022362;28;20054;-66
2024/01/24 14:13:22;;;;;;;22.02;6.45;;;;;;;;;;5020258;28;20405;-77
2024/01/24 14:15:48;;;;;;;18.88;6.50;;;;;;;;;;5020755;28;20125;-76
2024/01/24 14:18:14;;;;;;;32.63;7.82;;;;;;;;;;5023518;28;20049;-77
2024/01/24 14:20:40;;;;;;;14.88;6.07;;;;;;;;;;5021473;28;20046;-78
2024/01/24 14:23:08;;;;;;;24.08;5.50;;;;;;;;;;5020895;28;20100;-78
2024/01/24 14:25:34;;;;;;;26.02;6.50;;;;;;;;;;5018755;28;20116;-78
2024/01/24 14:28:00;;;;;;;21.30;5.82;;;;;;;;;;5011464;28;20501;-79